Time;durP1;ratioP1;P1;durP2;ratioP2;P2;SDS_P1;SDS_P2;PMS_P1;PMS_P2;Temp;Humidity;BMP_temperature;BMP_pressure;BME280_temperature;BME280_humidity;BME280_pressure;Samples;Min_cycle;Max_cycle;Signal;HPM_P1;HPM_P2
2023/09/16 00:01:18;;;;;;;7.25;4.78;;;24.10;99.40;;;;;;10060432;28;20417;-70
2023/09/16 00:06:12;;;;;;;9.80;4.80;;;24.10;99.40;;;;;;10060449;28;20041;-70
2023/09/16 00:11:03;;;;;;;8.53;5.67;;;24.00;99.60;;;;;;10059918;28;20014;-71
2023/09/16 00:15:54;;;;;;;7.22;4.97;;;23.70;99.90;;;;;;10052007;28;20110;-70
2023/09/16 00:20:49;;;;;;;7.22;5.18;;;23.80;99.90;;;;;;10059301;28;20506;-70
2023/09/16 00:25:40;;;;;;;7.47;5.35;;;23.70;99.90;;;;;;10062732;28;20116;-71
2023/09/16 00:30:31;;;;;;;8.00;5.50;;;23.70;99.90;;;;;;10048978;28;20492;-71
2023/09/16 00:35:21;;;;;;;6.45;4.72;;;23.60;99.90;;;;;;10059648;28;20037;-70
2023/09/16 00:40:12;;;;;;;7.53;6.05;;;23.60;99.90;;;;;;10058706;28;20022;-71
2023/09/16 00:45:04;;;;;;;7.93;5.28;;;23.50;99.90;;;;;;10051034;28;20049;-69
2023/09/16 00:49:55;;;;;;;7.45;5.20;;;23.50;99.90;;;;;;10059377;28;20025;-71
2023/09/16 00:54:50;;;;;;;10.88;5.15;;;23.50;99.90;;;;;;10050861;28;20032;-71
2023/09/16 00:59:41;;;;;;;7.05;5.00;;;23.50;99.90;;;;;;10051692;28;20025;-72
2023/09/16 01:04:32;;;;;;;7.63;5.43;;;23.40;99.90;;;;;;10058368;28;20041;-70
2023/09/16 01:09:23;;;;;;;8.85;5.80;;;23.40;99.90;;;;;;10054233;28;20021;-71
2023/09/16 01:14:14;;;;;;;9.45;5.40;;;23.40;99.90;;;;;;10057902;28;20053;-70
2023/09/16 01:19:16;;;;;;;8.75;5.80;;;23.30;99.90;;;;;;10054385;28;20029;-71
2023/09/16 01:24:17;;;;;;;9.05;5.32;;;23.30;99.90;;;;;;10049170;28;20086;-71
2023/09/16 01:29:09;;;;;;;10.68;6.22;;;23.20;99.90;;;;;;10040386;28;20022;-71
2023/09/16 01:34:06;;;;;;;9.30;5.13;;;23.20;99.90;;;;;;10045802;22;20058;-71
2023/09/16 01:39:01;;;;;;;8.75;5.38;;;23.20;99.90;;;;;;10026333;28;20032;-71
2023/09/16 01:43:52;;;;;;;7.78;5.10;;;23.10;99.90;;;;;;10023037;28;20109;-71
2023/09/16 01:48:42;;;;;;;9.15;4.88;;;23.10;99.90;;;;;;10026407;28;20140;-71
2023/09/16 01:53:33;;;;;;;8.93;4.85;;;23.20;99.90;;;;;;10024266;28;20029;-71
2023/09/16 01:58:24;;;;;;;7.88;6.13;;;23.20;99.90;;;;;;10032178;28;20047;-71
2023/09/16 02:03:14;;;;;;;8.48;5.38;;;23.10;99.90;;;;;;10024067;28;20048;-71
2023/09/16 02:08:05;;;;;;;8.60;5.60;;;23.00;99.90;;;;;;10012983;28;20045;-71
2023/09/16 02:12:56;;;;;;;9.32;6.05;;;23.00;99.90;;;;;;10011642;28;20092;-72
2023/09/16 02:17:46;;;;;;;7.72;5.25;;;23.00;99.90;;;;;;10028519;28;20056;-71
2023/09/16 02:22:38;;;;;;;8.43;5.45;;;22.90;99.90;;;;;;10040766;28;20025;-71
2023/09/16 02:27:29;;;;;;;7.00;4.32;;;22.90;99.90;;;;;;10035554;28;20041;-72
2023/09/16 02:32:19;;;;;;;6.68;4.32;;;22.80;99.90;;;;;;10039167;28;20313;-71
2023/09/16 02:37:10;;;;;;;8.38;4.68;;;22.80;99.90;;;;;;10029965;28;20304;-71
2023/09/16 02:42:01;;;;;;;9.45;5.00;;;22.70;99.90;;;;;;10027374;28;20068;-71
2023/09/16 02:46:53;;;;;;;6.82;4.57;;;22.60;99.90;;;;;;10028356;28;20033;-71
2023/09/16 02:51:43;;;;;;;8.70;4.70;;;22.50;99.90;;;;;;10041738;28;20061;-71
2023/09/16 02:56:34;;;;;;;7.20;4.68;;;22.40;99.90;;;;;;10053022;28;20034;-72
2023/09/16 03:01:25;;;;;;;6.90;5.18;;;22.50;99.90;;;;;;10027398;28;20069;-71
2023/09/16 03:06:15;;;;;;;6.75;4.90;;;22.50;99.90;;;;;;10012637;28;20050;-71
2023/09/16 03:11:06;;;;;;;7.45;5.45;;;22.40;99.90;;;;;;10028790;28;20538;-71
2023/09/16 03:16:16;;;;;;;9.32;5.15;;;22.40;99.90;;;;;;10040707;28;20033;-71
2023/09/16 03:21:07;;;;;;;7.43;5.38;;;22.30;99.90;;;;;;10052479;28;20029;-71
2023/09/16 03:25:58;;;;;;;8.25;4.53;;;22.20;99.90;;;;;;10047407;28;20185;-71
2023/09/16 03:30:48;;;;;;;8.85;5.30;;;22.10;99.90;;;;;;10039283;28;20116;-71
2023/09/16 03:35:39;;;;;;;7.50;5.32;;;22.20;99.90;;;;;;10036878;28;20049;-71
2023/09/16 03:40:30;;;;;;;8.05;5.43;;;22.10;99.90;;;;;;10031856;28;20555;-70
2023/09/16 03:45:20;;;;;;;7.68;5.32;;;22.10;99.90;;;;;;10028523;28;20125;-70
2023/09/16 03:50:11;;;;;;;6.22;4.45;;;22.20;99.90;;;;;;10055360;28;20037;-70
2023/09/16 03:55:02;;;;;;;6.70;5.55;;;22.10;99.90;;;;;;10054988;28;20036;-71
2023/09/16 03:59:53;;;;;;;10.25;5.45;;;22.00;99.90;;;;;;10036182;28;20112;-71
2023/09/16 04:04:44;;;;;;;8.57;6.00;;;22.00;99.90;;;;;;10029154;28;20029;-72
2023/09/16 04:09:35;;;;;;;9.40;5.18;;;22.00;99.90;;;;;;10027539;28;20380;-71
2023/09/16 04:14:27;;;;;;;7.72;4.85;;;22.10;99.90;;;;;;10031212;28;20449;-71
2023/09/16 04:19:17;;;;;;;6.72;4.40;;;22.10;99.90;;;;;;10051915;28;20056;-70
2023/09/16 04:24:08;;;;;;;6.05;4.82;;;22.00;99.90;;;;;;10047685;28;20037;-71
2023/09/16 04:29:02;;;;;;;7.68;4.68;;;22.00;99.90;;;;;;10034969;28;20026;-71
2023/09/16 04:33:54;;;;;;;6.43;4.70;;;21.90;99.90;;;;;;10037737;28;20500;-71
2023/09/16 04:38:44;;;;;;;7.05;5.20;;;21.90;99.90;;;;;;10036951;28;20025;-71
2023/09/16 04:43:35;;;;;;;6.00;4.60;;;21.80;99.90;;;;;;10027814;28;20018;-71
2023/09/16 04:48:27;;;;;;;7.45;4.82;;;21.80;99.90;;;;;;10034197;28;20044;-71
2023/09/16 04:53:18;;;;;;;6.90;4.40;;;21.70;99.90;;;;;;10051760;28;20040;-71
2023/09/16 04:58:09;;;;;;;7.90;5.13;;;21.70;99.90;;;;;;10040353;28;20033;-71
2023/09/16 05:03:00;;;;;;;6.88;4.63;;;21.60;99.90;;;;;;10023024;28;20099;-71
2023/09/16 05:07:50;;;;;;;6.32;4.28;;;21.70;99.90;;;;;;10019432;28;20120;-71
2023/09/16 05:12:41;;;;;;;8.60;4.82;;;21.60;99.90;;;;;;10013102;28;20396;-71
2023/09/16 05:17:32;;;;;;;8.65;4.90;;;21.60;99.90;;;;;;10033993;28;20025;-71
2023/09/16 05:22:23;;;;;;;6.00;4.45;;;21.60;99.90;;;;;;10030375;28;20025;-71
2023/09/16 05:27:14;;;;;;;8.20;4.70;;;21.50;99.90;;;;;;10038255;28;20042;-71
2023/09/16 05:32:04;;;;;;;7.85;4.25;;;21.40;99.90;;;;;;10035365;28;20072;-71
2023/09/16 05:36:55;;;;;;;6.60;5.07;;;21.40;99.90;;;;;;10021404;28;20025;-71
2023/09/16 05:41:47;;;;;;;5.70;4.50;;;21.40;99.90;;;;;;10027340;28;20049;-71
2023/09/16 05:46:38;;;;;;;8.50;4.82;;;21.50;99.90;;;;;;10027069;28;20033;-71
2023/09/16 05:51:29;;;;;;;6.47;4.50;;;21.50;99.90;;;;;;10051656;28;20021;-71
2023/09/16 05:56:20;;;;;;;6.65;4.38;;;21.50;99.90;;;;;;10045567;28;20026;-71
2023/09/16 06:01:11;;;;;;;5.38;4.28;;;21.40;99.90;;;;;;10028592;28;20400;-71
2023/09/16 06:06:01;;;;;;;7.60;4.40;;;21.40;99.90;;;;;;10028462;28;20044;-71
2023/09/16 06:10:53;;;;;;;7.07;4.57;;;21.40;99.90;;;;;;10023573;28;20032;-72
2023/09/16 06:15:43;;;;;;;9.88;4.88;;;21.40;99.90;;;;;;10024268;28;20115;-72
2023/09/16 06:20:34;;;;;;;8.70;5.35;;;21.40;99.90;;;;;;10046714;28;20434;-72
2023/09/16 06:25:25;;;;;;;6.90;4.70;;;21.50;99.90;;;;;;10041993;28;20034;-72
2023/09/16 06:30:15;;;;;;;7.55;5.93;;;21.40;99.90;;;;;;10033722;28;20037;-72
2023/09/16 06:35:06;;;;;;;8.02;5.10;;;21.40;99.90;;;;;;10030769;28;20065;-72
2023/09/16 06:39:57;;;;;;;7.45;6.15;;;21.40;99.90;;;;;;10028050;28;20025;-71
2023/09/16 06:44:54;;;;;;;11.65;6.55;;;21.30;99.90;;;;;;10022145;28;20100;-72
2023/09/16 06:49:45;;;;;;;8.02;5.35;;;21.40;99.90;;;;;;10038406;28;20036;-72
2023/09/16 06:54:36;;;;;;;10.35;5.90;;;21.40;99.90;;;;;;10038065;28;20038;-71
2023/09/16 06:59:28;;;;;;;8.32;5.55;;;21.50;99.90;;;;;;10032796;28;20025;-72
2023/09/16 07:04:18;;;;;;;8.00;5.95;;;21.60;99.90;;;;;;10025034;28;20512;-72
2023/09/16 07:09:10;;;;;;;10.82;5.82;;;21.60;99.90;;;;;;10021194;28;20037;-71
2023/09/16 07:14:03;;;;;;;9.80;6.22;;;21.60;99.90;;;;;;10031005;28;20026;-71
2023/09/16 07:18:53;;;;;;;12.23;5.63;;;21.50;99.90;;;;;;10045892;28;20117;-71
2023/09/16 07:23:45;;;;;;;9.90;5.90;;;21.50;99.90;;;;;;10044423;28;20101;-72
2023/09/16 07:28:35;;;;;;;8.60;5.57;;;21.50;99.90;;;;;;10027527;28;20492;-72
2023/09/16 07:33:26;;;;;;;10.25;6.45;;;21.50;99.90;;;;;;10033779;28;20049;-71
2023/09/16 07:38:17;;;;;;;7.93;5.38;;;21.60;99.90;;;;;;10027541;28;20543;-71
2023/09/16 07:43:08;;;;;;;8.23;5.75;;;21.70;99.90;;;;;;10027219;28;20020;-71
2023/09/16 07:47:59;;;;;;;9.43;6.45;;;21.80;99.90;;;;;;10038397;28;20072;-71
2023/09/16 07:52:50;;;;;;;7.43;5.55;;;21.90;99.90;;;;;;10048499;28;20025;-71
2023/09/16 07:57:40;;;;;;;9.88;6.50;;;22.00;99.90;;;;;;10042374;28;20041;-71
2023/09/16 08:02:31;;;;;;;8.50;6.00;;;22.10;99.90;;;;;;10072128;23;20049;-71
2023/09/16 08:07:21;;;;;;;8.10;5.78;;;22.20;99.90;;;;;;10096788;28;21125;-72
2023/09/16 08:12:12;;;;;;;9.07;5.63;;;22.30;99.90;;;;;;10114072;28;20025;-71
2023/09/16 08:17:03;;;;;;;8.98;5.72;;;22.30;99.90;;;;;;10100069;28;20031;-73
2023/09/16 08:21:54;;;;;;;7.53;5.05;;;22.30;99.90;;;;;;10098869;28;20116;-71
2023/09/16 08:26:44;;;;;;;9.23;6.30;;;22.40;99.90;;;;;;10087705;28;20133;-67
2023/09/16 08:31:35;;;;;;;8.13;4.95;;;22.50;99.90;;;;;;10097966;28;20028;-72
2023/09/16 08:36:25;;;;;;;5.70;4.63;;;22.60;99.90;;;;;;10097364;28;20140;-71
2023/09/16 08:41:36;;;;;;;8.73;5.25;;;22.60;99.90;;;;;;10099000;28;20025;-69
2023/09/16 08:46:34;;;;;;;8.60;5.65;;;22.60;99.90;;;;;;10089399;28;20040;-70
2023/09/16 08:51:25;;;;;;;10.20;5.65;;;22.60;99.90;;;;;;10098841;28;20168;-70
2023/09/16 08:56:16;;;;;;;8.10;4.95;;;22.60;99.90;;;;;;10104004;28;20029;-69
2023/09/16 09:01:07;;;;;;;6.50;4.68;;;22.70;99.90;;;;;;10109764;23;20057;-69
2023/09/16 09:05:58;;;;;;;7.13;4.72;;;22.80;99.90;;;;;;10101340;28;20144;-71
2023/09/16 09:10:49;;;;;;;12.35;5.05;;;22.90;99.90;;;;;;10096832;28;20032;-69
2023/09/16 09:15:41;;;;;;;5.85;4.25;;;22.90;99.90;;;;;;10095706;28;20552;-70
2023/09/16 09:20:36;;;;;;;6.93;4.90;;;23.00;99.90;;;;;;10096313;28;20342;-69
2023/09/16 09:25:31;;;;;;;5.80;4.63;;;23.10;99.90;;;;;;10095629;28;20132;-70
2023/09/16 09:30:28;;;;;;;7.45;4.40;;;23.10;99.90;;;;;;10096653;28;20052;-69
2023/09/16 09:35:23;;;;;;;7.43;4.45;;;23.20;99.90;;;;;;10094120;28;20025;-70
2023/09/16 09:40:15;;;;;;;6.05;4.38;;;23.20;99.90;;;;;;10096268;28;20037;-70
2023/09/16 09:45:06;;;;;;;6.75;4.25;;;23.30;99.90;;;;;;10093987;28;20025;-70
2023/09/16 09:49:57;;;;;;;5.47;4.35;;;23.30;99.90;;;;;;10075993;28;20025;-70
2023/09/16 09:54:55;;;;;;;6.28;4.82;;;23.30;99.90;;;;;;10095964;28;20070;-70
2023/09/16 09:59:46;;;;;;;6.38;4.53;;;23.40;99.90;;;;;;10095398;28;20028;-70
2023/09/16 10:04:37;;;;;;;8.48;4.70;;;23.40;99.90;;;;;;10093998;28;20418;-70
2023/09/16 10:09:30;;;;;;;5.20;4.68;;;23.40;99.90;;;;;;10086128;28;20099;-70
2023/09/16 10:14:22;;;;;;;6.95;4.45;;;23.40;99.90;;;;;;10075674;28;20026;-72
2023/09/16 10:19:13;;;;;;;6.07;4.35;;;23.50;99.90;;;;;;10096996;28;20021;-71
2023/09/16 10:24:04;;;;;;;6.63;4.30;;;23.50;99.90;;;;;;10091842;28;20036;-71
2023/09/16 10:28:56;;;;;;;5.43;4.57;;;23.60;99.90;;;;;;10088456;28;20101;-70
2023/09/16 10:33:47;;;;;;;7.25;5.22;;;23.70;99.90;;;;;;10084786;28;20045;-70
2023/09/16 10:38:38;;;;;;;7.45;5.22;;;23.80;99.90;;;;;;10091779;28;20029;-70
2023/09/16 10:43:30;;;;;;;6.80;4.75;;;23.80;99.90;;;;;;10082026;28;20029;-70
2023/09/16 10:48:21;;;;;;;7.95;5.50;;;23.90;99.90;;;;;;10085906;28;20518;-71
2023/09/16 10:53:18;;;;;;;7.30;5.13;;;23.90;99.90;;;;;;10075965;28;20032;-71
2023/09/16 10:58:23;;;;;;;7.85;5.07;;;24.00;99.90;;;;;;10087870;28;20040;-71
2023/09/16 11:03:15;;;;;;;7.45;4.65;;;24.10;99.90;;;;;;10085868;28;20095;-71
2023/09/16 11:08:07;;;;;;;7.38;5.20;;;24.20;99.90;;;;;;10085585;28;20044;-71
2023/09/16 11:12:59;;;;;;;6.93;4.45;;;24.20;99.90;;;;;;10081676;28;20021;-71
2023/09/16 11:18:02;;;;;;;7.13;4.18;;;24.20;99.90;;;;;;10088803;28;20503;-71
2023/09/16 11:22:53;;;;;;;6.45;4.70;;;24.20;99.90;;;;;;10098534;28;20021;-71
2023/09/16 11:27:45;;;;;;;5.07;3.97;;;24.20;99.90;;;;;;10095200;28;20193;-71
2023/09/16 11:32:37;;;;;;;6.07;4.80;;;24.30;99.90;;;;;;10090883;28;20442;-70
2023/09/16 11:37:31;;;;;;;6.65;4.97;;;24.40;99.90;;;;;;10095094;28;20326;-70
2023/09/16 11:42:21;;;;;;;5.95;4.22;;;24.60;99.90;;;;;;10088134;28;20522;-70
2023/09/16 11:47:14;;;;;;;8.25;4.00;;;24.70;99.90;;;;;;10090317;28;20056;-72
2023/09/16 11:52:05;;;;;;;6.18;3.67;;;24.70;99.90;;;;;;10077696;28;20140;-70
2023/09/16 11:56:55;;;;;;;6.70;4.35;;;24.70;99.90;;;;;;10088545;28;20021;-70
2023/09/16 12:01:48;;;;;;;5.88;4.10;;;24.70;99.90;;;;;;10087893;28;20053;-70
2023/09/16 12:06:39;;;;;;;5.00;3.58;;;24.80;99.90;;;;;;10095035;28;20229;-70
2023/09/16 12:11:31;;;;;;;8.82;4.07;;;24.80;99.90;;;;;;10080563;28;20025;-70
2023/09/16 12:16:22;;;;;;;5.88;4.28;;;24.90;99.90;;;;;;10085534;28;20109;-70
2023/09/16 12:21:13;;;;;;;6.82;3.95;;;24.90;99.90;;;;;;10096653;28;20439;-70
2023/09/16 12:26:08;;;;;;;5.47;4.35;;;24.90;99.90;;;;;;10087186;28;20116;-71
2023/09/16 12:31:11;;;;;;;;;;;25.00;99.90;;;;;;10085323;28;20106;-70
2023/09/16 12:36:03;;;;;;;5.82;3.67;;;25.00;99.90;;;;;;10091626;28;19934;-70
2023/09/16 12:40:54;;;;;;;4.60;3.38;;;25.00;99.90;;;;;;10088738;28;20514;-71
2023/09/16 12:45:44;;;;;;;7.80;5.57;;;25.10;99.90;;;;;;10081539;28;20041;-70
2023/09/16 12:50:36;;;;;;;6.30;4.40;;;25.20;99.90;;;;;;10076595;28;20272;-70
2023/09/16 12:55:27;;;;;;;6.13;4.20;;;25.30;99.90;;;;;;10098449;28;20029;-70
2023/09/16 13:00:22;;;;;;;5.63;4.05;;;25.40;99.90;;;;;;10092513;28;20052;-70
2023/09/16 13:05:18;;;;;;;5.05;3.88;;;25.60;99.90;;;;;;10093279;28;20045;-70
2023/09/16 13:10:09;;;;;;;5.43;4.18;;;25.80;99.90;;;;;;10088072;28;20502;-70
2023/09/16 13:15:00;;;;;;;6.28;3.67;;;25.70;99.90;;;;;;10074624;28;20037;-70
2023/09/16 13:19:51;;;;;;;5.47;3.58;;;25.70;99.90;;;;;;10096438;28;20025;-70
2023/09/16 13:24:43;;;;;;;4.13;3.50;;;25.70;99.90;;;;;;10093867;28;20446;-70
2023/09/16 13:29:34;;;;;;;4.47;3.35;;;25.70;99.90;;;;;;10087233;28;20372;-70
2023/09/16 13:34:38;;;;;;;3.83;3.05;;;25.70;99.90;;;;;;10084829;28;20013;-71
2023/09/16 13:39:40;;;;;;;3.90;3.03;;;25.70;99.90;;;;;;10088641;28;20021;-70
2023/09/16 13:44:31;;;;;;;3.55;3.05;;;25.70;99.90;;;;;;10075070;28;20036;-71
2023/09/16 13:49:22;;;;;;;5.30;3.38;;;25.60;99.90;;;;;;10101546;28;20029;-70
2023/09/16 13:54:12;;;;;;;3.72;2.88;;;25.60;99.90;;;;;;10071310;28;20021;-71
2023/09/16 13:59:03;;;;;;;4.07;3.33;;;25.70;99.90;;;;;;10088980;28;20408;-71
2023/09/16 14:03:54;;;;;;;5.57;4.03;;;25.70;99.90;;;;;;10096731;28;20051;-70
2023/09/16 14:08:45;;;;;;;4.05;3.35;;;25.70;99.90;;;;;;10086107;28;20503;-70
2023/09/16 14:13:38;;;;;;;6.75;3.97;;;25.80;99.90;;;;;;10083191;28;20046;-70
2023/09/16 14:18:29;;;;;;;5.57;3.85;;;25.80;99.90;;;;;;10083708;28;20067;-71
2023/09/16 14:23:20;;;;;;;5.93;3.63;;;25.90;99.90;;;;;;10087665;28;20028;-70
2023/09/16 14:28:11;;;;;;;5.05;3.28;;;25.80;99.90;;;;;;10087146;28;20045;-71
2023/09/16 14:33:04;;;;;;;6.68;3.65;;;25.90;99.90;;;;;;10083728;28;20017;-70
2023/09/16 14:37:56;;;;;;;4.90;3.42;;;25.90;99.90;;;;;;10079478;28;20061;-71
2023/09/16 14:42:46;;;;;;;4.57;3.10;;;25.80;99.90;;;;;;10084124;28;20028;-70
2023/09/16 14:47:37;;;;;;;8.52;4.13;;;25.90;99.90;;;;;;10095903;28;20041;-70
2023/09/16 14:52:29;;;;;;;4.03;3.25;;;25.90;99.90;;;;;;10078037;28;20067;-71
2023/09/16 14:57:21;;;;;;;6.70;4.97;;;25.90;99.90;;;;;;10099453;28;20510;-71
2023/09/16 15:02:12;;;;;;;6.15;4.15;;;26.00;99.90;;;;;;10097176;28;20106;-70
2023/09/16 15:07:04;;;;;;;6.25;3.85;;;26.00;99.90;;;;;;10101735;28;20032;-69
2023/09/16 15:11:54;;;;;;;7.20;5.18;;;26.00;99.90;;;;;;10106489;28;20028;-70
2023/09/16 15:16:45;;;;;;;6.18;4.25;;;26.00;99.90;;;;;;10101270;28;20368;-71
2023/09/16 15:21:36;;;;;;;5.15;4.20;;;26.00;99.90;;;;;;10091620;28;20116;-70
2023/09/16 15:26:27;;;;;;;5.70;4.10;;;25.90;99.90;;;;;;10092566;28;20083;-71
2023/09/16 15:31:18;;;;;;;6.07;4.28;;;25.90;99.90;;;;;;10098360;28;20070;-70
2023/09/16 15:36:09;;;;;;;5.20;4.10;;;25.90;99.90;;;;;;10101396;28;20056;-71
2023/09/16 15:41:03;;;;;;;6.25;4.90;;;25.90;99.90;;;;;;10101661;28;20251;-71
2023/09/16 15:45:59;;;;;;;5.05;4.25;;;25.90;99.90;;;;;;10101135;28;20504;-70
2023/09/16 15:50:50;;;;;;;5.85;4.10;;;26.00;99.90;;;;;;10101514;28;20086;-71
2023/09/16 15:55:42;;;;;;;6.75;4.18;;;25.90;99.90;;;;;;10099508;28;20120;-70
2023/09/16 16:00:34;;;;;;;6.13;4.30;;;25.90;99.90;;;;;;10099989;28;20028;-70
2023/09/16 16:05:25;;;;;;;6.68;4.55;;;26.00;99.90;;;;;;10100510;28;20099;-70
2023/09/16 16:10:16;;;;;;;5.85;4.25;;;26.00;99.90;;;;;;10101765;28;20487;-70
2023/09/16 16:15:07;;;;;;;7.18;4.63;;;26.00;99.90;;;;;;10085312;28;20479;-70
2023/09/16 16:19:57;;;;;;;6.60;4.18;;;26.10;99.90;;;;;;10087276;28;20090;-71
2023/09/16 16:24:48;;;;;;;6.05;4.30;;;26.20;99.90;;;;;;10093928;28;20102;-72
2023/09/16 16:29:40;;;;;;;7.75;4.03;;;26.30;99.90;;;;;;10085954;28;20114;-71
2023/09/16 16:34:30;;;;;;;6.15;4.82;;;26.60;99.90;;;;;;10091236;28;20633;-71
2023/09/16 16:39:21;;;;;;;6.13;3.90;;;26.60;99.90;;;;;;10087608;28;20286;-70
2023/09/16 16:44:12;;;;;;;7.53;4.68;;;26.50;99.90;;;;;;10077028;28;20079;-70
2023/09/16 16:49:03;;;;;;;6.85;4.53;;;26.40;99.90;;;;;;10087084;28;20041;-70
2023/09/16 16:53:54;;;;;;;6.22;5.25;;;26.30;99.90;;;;;;10097142;28;20118;-70
2023/09/16 16:58:44;;;;;;;10.65;4.32;;;26.30;99.90;;;;;;10098532;28;20161;-71
2023/09/16 17:03:35;;;;;;;6.07;4.47;;;26.30;99.90;;;;;;10086514;28;20045;-71
2023/09/16 17:08:26;;;;;;;5.47;3.75;;;26.20;99.90;;;;;;10088377;28;20048;-71
2023/09/16 17:13:16;;;;;;;5.90;4.40;;;26.20;99.90;;;;;;10089083;28;20025;-71
2023/09/16 17:18:09;;;;;;;7.07;5.65;;;26.10;99.90;;;;;;10096389;28;20053;-72
2023/09/16 17:23:00;;;;;;;5.95;4.60;;;26.20;99.90;;;;;;10094036;28;20521;-71
2023/09/16 17:27:51;;;;;;;7.80;5.78;;;26.10;99.90;;;;;;10084507;28;20849;-71
2023/09/16 17:32:41;;;;;;;9.77;6.10;;;26.10;99.90;;;;;;10090201;28;20029;-71
2023/09/16 17:37:33;;;;;;;9.95;6.95;;;26.10;99.90;;;;;;10094582;28;20021;-71
2023/09/16 17:42:23;;;;;;;7.78;5.93;;;26.10;99.90;;;;;;10081392;28;20098;-71
2023/09/16 17:47:15;;;;;;;8.05;6.00;;;26.10;99.90;;;;;;10082781;28;20494;-71
2023/09/16 17:52:08;;;;;;;11.93;7.15;;;26.10;99.90;;;;;;10082586;28;20017;-71
2023/09/16 17:56:58;;;;;;;10.48;5.95;;;26.10;99.90;;;;;;10093784;28;20124;-71
2023/09/16 18:01:49;;;;;;;10.38;5.85;;;26.10;99.90;;;;;;10079544;28;20335;-71
2023/09/16 18:06:41;;;;;;;11.15;5.78;;;26.10;99.90;;;;;;10092710;28;20045;-71
2023/09/16 18:11:34;;;;;;;8.20;6.05;;;26.10;99.90;;;;;;10076169;28;20087;-70
2023/09/16 18:16:25;;;;;;;8.32;5.88;;;26.10;99.90;;;;;;10091793;28;20048;-70
2023/09/16 18:21:16;;;;;;;12.02;7.85;;;26.10;99.90;;;;;;10089976;28;20041;-70
2023/09/16 18:26:09;;;;;;;13.90;7.55;;;26.10;99.90;;;;;;10082825;28;20033;-70
2023/09/16 18:30:59;;;;;;;12.43;7.65;;;26.10;99.90;;;;;;10099645;28;20494;-70
2023/09/16 18:35:50;;;;;;;9.05;6.78;;;26.10;99.90;;;;;;10083702;28;20033;-71
2023/09/16 18:40:41;;;;;;;12.68;6.93;;;26.10;99.90;;;;;;10084711;28;20025;-71
2023/09/16 18:45:31;;;;;;;12.20;7.45;;;26.10;99.90;;;;;;10074269;28;20450;-71
2023/09/16 18:50:22;;;;;;;10.40;6.80;;;26.00;99.90;;;;;;10082956;28;20040;-71
2023/09/16 18:55:13;;;;;;;11.50;7.30;;;26.00;99.90;;;;;;10092169;28;20025;-70
2023/09/16 19:00:06;;;;;;;12.60;7.07;;;26.00;99.90;;;;;;10084436;28;20427;-71
2023/09/16 19:04:57;;;;;;;14.75;7.63;;;26.00;99.90;;;;;;10083099;28;20045;-71
2023/09/16 19:09:47;;;;;;;10.38;7.28;;;26.00;99.90;;;;;;10083325;28;20029;-71
2023/09/16 19:14:38;;;;;;;14.73;7.80;;;26.00;99.90;;;;;;10106884;28;20029;-71
2023/09/16 19:19:29;;;;;;;11.00;7.07;;;26.00;99.90;;;;;;10091759;28;20036;-71
2023/09/16 19:24:20;;;;;;;12.32;7.50;;;26.00;99.90;;;;;;10086499;28;20171;-71
2023/09/16 19:29:10;;;;;;;11.40;8.07;;;25.90;99.90;;;;;;10077933;28;20100;-72
2023/09/16 19:34:02;;;;;;;10.50;8.10;;;25.90;99.90;;;;;;10072095;28;20017;-71
2023/09/16 19:38:52;;;;;;;11.85;8.00;;;25.90;99.90;;;;;;10097485;28;20104;-71
2023/09/16 19:43:47;;;;;;;10.30;7.43;;;25.80;99.90;;;;;;10090232;28;20121;-71
2023/09/16 19:48:37;;;;;;;9.27;6.82;;;25.80;99.90;;;;;;10086685;28;20056;-71
2023/09/16 19:53:28;;;;;;;10.48;6.30;;;25.70;99.90;;;;;;10098581;28;20027;-70
2023/09/16 19:58:18;;;;;;;9.60;6.03;;;25.70;99.90;;;;;;10091500;28;20037;-70
2023/09/16 20:03:09;;;;;;;10.15;6.68;;;25.60;99.90;;;;;;10083690;28;20057;-71
2023/09/16 20:07:59;;;;;;;8.82;6.40;;;25.60;99.90;;;;;;10097315;28;20040;-70
2023/09/16 20:12:50;;;;;;;10.77;7.10;;;25.60;99.90;;;;;;10085848;28;20441;-70
2023/09/16 20:17:41;;;;;;;8.30;6.00;;;25.70;99.90;;;;;;10097273;28;20075;-70
2023/09/16 20:22:31;;;;;;;12.35;8.48;;;25.60;99.90;;;;;;10095086;28;20028;-70
2023/09/16 20:27:22;;;;;;;8.95;6.05;;;25.60;99.90;;;;;;10089650;28;20501;-71
2023/09/16 20:32:13;;;;;;;10.05;6.65;;;25.50;99.90;;;;;;10092681;28;20364;-70
2023/09/16 20:37:03;;;;;;;9.40;6.10;;;25.50;99.90;;;;;;10082018;28;20036;-71
2023/09/16 20:41:54;;;;;;;8.23;6.28;;;25.50;99.90;;;;;;10087678;28;20024;-71
2023/09/16 20:46:44;;;;;;;7.32;6.10;;;25.40;99.90;;;;;;10084608;28;20044;-71
2023/09/16 20:51:35;;;;;;;8.07;5.93;;;25.40;99.90;;;;;;10088264;28;20021;-71
2023/09/16 20:56:26;;;;;;;9.27;5.85;;;25.40;99.90;;;;;;10092021;28;20029;-71
2023/09/16 21:01:17;;;;;;;8.05;5.70;;;25.30;99.90;;;;;;10079487;28;20103;-70
2023/09/16 21:06:08;;;;;;;10.50;6.05;;;25.30;99.90;;;;;;10092771;28;20045;-71
2023/09/16 21:10:59;;;;;;;9.55;6.07;;;25.30;99.90;;;;;;10084308;28;20525;-71
2023/09/16 21:15:50;;;;;;;9.32;6.88;;;25.30;99.90;;;;;;10095589;28;20041;-71
2023/09/16 21:20:41;;;;;;;9.50;6.65;;;25.20;99.90;;;;;;10094076;28;20029;-71
2023/09/16 21:25:32;;;;;;;8.35;6.22;;;25.20;99.90;;;;;;10087217;28;20399;-71
2023/09/16 21:30:23;;;;;;;8.95;6.53;;;25.20;99.90;;;;;;10084540;28;20112;-70
2023/09/16 21:35:13;;;;;;;9.85;6.60;;;25.20;99.90;;;;;;10082855;28;20044;-71
2023/09/16 21:40:04;;;;;;;10.50;6.80;;;25.20;99.90;;;;;;10087013;28;20029;-72
2023/09/16 21:44:56;;;;;;;11.77;7.43;;;25.10;99.90;;;;;;10076837;28;20029;-70
2023/09/16 21:49:46;;;;;;;10.07;7.20;;;25.10;99.90;;;;;;10096106;28;20102;-71
2023/09/16 21:54:37;;;;;;;9.45;6.63;;;25.10;99.90;;;;;;10082934;28;20541;-71
2023/09/16 21:59:27;;;;;;;12.40;6.32;;;25.10;99.90;;;;;;10090936;28;20032;-71
2023/09/16 22:04:18;;;;;;;9.07;7.22;;;25.00;99.90;;;;;;10083351;28;20494;-70
2023/09/16 22:09:09;;;;;;;10.52;6.68;;;25.00;99.90;;;;;;10079909;28;20048;-71
2023/09/16 22:14:00;;;;;;;11.23;7.50;;;24.90;99.90;;;;;;10092031;28;20032;-71
2023/09/16 22:18:50;;;;;;;11.43;6.88;;;24.90;99.90;;;;;;10094133;28;20119;-70
2023/09/16 22:23:41;;;;;;;10.15;6.78;;;24.80;99.90;;;;;;10088237;28;20044;-70
2023/09/16 22:28:32;;;;;;;9.70;6.25;;;24.80;99.90;;;;;;10078404;28;20140;-71
2023/09/16 22:33:24;;;;;;;9.15;6.47;;;24.70;99.90;;;;;;10087190;28;20166;-71
2023/09/16 22:38:14;;;;;;;10.85;6.93;;;24.80;99.90;;;;;;10088328;28;20075;-70
2023/09/16 22:43:05;;;;;;;9.95;6.82;;;24.80;99.90;;;;;;10087281;28;20021;-71
2023/09/16 22:47:56;;;;;;;7.85;6.38;;;24.70;99.90;;;;;;10085768;28;20046;-70
2023/09/16 22:52:46;;;;;;;7.93;6.35;;;24.60;99.90;;;;;;10092952;28;20052;-71
2023/09/16 22:57:37;;;;;;;10.27;6.65;;;24.60;99.90;;;;;;10084393;28;20068;-71
2023/09/16 23:02:28;;;;;;;10.10;6.72;;;24.60;99.90;;;;;;10077085;28;20045;-70
2023/09/16 23:07:19;;;;;;;8.80;5.80;;;24.40;99.90;;;;;;10091013;28;20030;-70
2023/09/16 23:12:10;;;;;;;7.57;6.32;;;24.30;99.90;;;;;;10094983;28;20109;-70
2023/09/16 23:17:01;;;;;;;11.15;6.78;;;24.30;99.90;;;;;;10098924;28;20499;-71
2023/09/16 23:21:52;;;;;;;8.98;6.50;;;24.40;99.90;;;;;;10096072;28;20129;-71
2023/09/16 23:26:42;;;;;;;12.57;6.95;;;24.20;99.90;;;;;;10093040;28;20120;-70
2023/09/16 23:31:33;;;;;;;7.55;6.07;;;24.20;99.90;;;;;;10092886;28;20020;-71
2023/09/16 23:36:24;;;;;;;10.90;6.63;;;24.10;99.90;;;;;;10093777;28;20032;-71
2023/09/16 23:41:15;;;;;;;10.32;7.22;;;24.00;99.90;;;;;;10093037;28;20017;-70
2023/09/16 23:46:07;;;;;;;11.07;5.97;;;24.10;99.90;;;;;;10082521;28;20120;-71
2023/09/16 23:50:58;;;;;;;8.35;5.82;;;24.00;99.90;;;;;;10089954;28;20049;-71
2023/09/16 23:55:48;;;;;;;9.40;6.43;;;24.00;99.90;;;;;;10094688;28;20419;-70
